createdAt,value
2022-10-07T00:02:30.534Z,95.75
2022-10-07T00:05:32.686Z,95.81
2022-10-07T00:08:36.833Z,95.73
2022-10-07T00:11:39.072Z,94.98
2022-10-07T00:14:42.549Z,95.42
2022-10-07T00:17:45.569Z,96.27
2022-10-07T00:20:48.121Z,96.73
2022-10-07T00:23:50.507Z,95.70
2022-10-07T00:26:52.958Z,95.95
2022-10-07T00:29:58.339Z,96.68
2022-10-07T00:33:00.691Z,96.81
2022-10-07T00:36:10.565Z,96.78
2022-10-07T00:39:15.030Z,96.62
2022-10-07T00:42:18.041Z,96.37
2022-10-07T00:45:21.234Z,96.80
2022-10-07T00:48:27.727Z,97.14
2022-10-07T00:51:33.369Z,97.17
2022-10-07T00:54:38.268Z,96.65
2022-10-07T00:57:42.849Z,96.24
2022-10-07T01:00:45.312Z,95.86
2022-10-07T01:03:49.109Z,95.66
2022-10-07T01:06:52.976Z,95.62
2022-10-07T01:09:59.528Z,96.12
2022-10-07T01:13:06.807Z,95.88
2022-10-07T01:16:49.826Z,95.56
2022-10-07T01:20:08.951Z,95.05
2022-10-07T01:23:26.121Z,95.80
2022-10-07T01:26:44.698Z,96.39
2022-10-07T01:29:59.132Z,97.21
2022-10-07T01:33:05.970Z,96.46
2022-10-07T01:36:12.593Z,96.40
2022-10-07T01:39:16.858Z,96.88
2022-10-07T01:42:20.994Z,97.57
2022-10-07T01:45:29.076Z,98.00
2022-10-07T01:48:32.716Z,97.68
2022-10-07T01:51:38.855Z,97.41
2022-10-07T01:55:12.366Z,97.60
2022-10-07T01:58:55.791Z,97.73
2022-10-07T02:02:04.155Z,96.88
2022-10-07T02:05:41.724Z,96.71
2022-10-07T02:08:49.383Z,96.66
2022-10-07T02:11:59.708Z,96.42
2022-10-07T02:15:12.723Z,96.05
2022-10-07T02:18:18.245Z,95.28
2022-10-07T02:21:25.176Z,95.69
2022-10-07T02:24:30.564Z,96.00
2022-10-07T02:27:37.088Z,95.66
2022-10-07T02:30:41.970Z,96.24
2022-10-07T02:33:47.173Z,96.66
2022-10-07T02:37:24.052Z,96.22
2022-10-07T02:40:37.065Z,96.25
2022-10-07T02:44:17.678Z,95.51
2022-10-07T02:47:29.023Z,95.78
2022-10-07T02:50:38.861Z,96.11
2022-10-07T02:53:41.594Z,96.88
2022-10-07T02:56:44.952Z,97.31
2022-10-07T02:59:50.444Z,96.78
2022-10-07T03:03:02.656Z,96.26
2022-10-07T03:06:22.900Z,95.70
2022-10-07T03:09:26.282Z,94.80
2022-10-07T03:12:29.004Z,96.08
2022-10-07T03:15:32.947Z,95.98
2022-10-07T03:18:35.855Z,95.21
2022-10-07T03:21:50.584Z,96.40
2022-10-07T03:24:54.279Z,96.75
2022-10-07T03:27:57.771Z,96.59
2022-10-07T03:31:09.069Z,96.35
2022-10-07T03:34:13.906Z,96.98
2022-10-07T03:37:18.596Z,96.91
2022-10-07T03:40:21.050Z,96.79
2022-10-07T03:43:23.707Z,96.84
2022-10-07T03:46:26.638Z,96.88
2022-10-07T03:49:29.575Z,97.09
2022-10-07T03:52:31.868Z,97.12
2022-10-07T03:55:35.134Z,96.89
2022-10-07T03:58:38.398Z,97.04
2022-10-07T04:01:43.885Z,97.23
2022-10-07T04:04:46.587Z,97.25
2022-10-07T04:07:51.100Z,97.63
2022-10-07T04:10:54.783Z,98.00
2022-10-07T04:14:00.801Z,98.20
2022-10-07T04:17:04.423Z,98.53
2022-10-07T04:20:08.767Z,98.51
2022-10-07T04:23:11.156Z,98.51
2022-10-07T04:26:14.148Z,98.57
2022-10-07T04:29:22.684Z,98.15
2022-10-07T04:32:25.086Z,97.81
2022-10-07T04:35:27.485Z,97.34
2022-10-07T04:38:32.559Z,97.47
2022-10-07T04:41:36.340Z,97.52
2022-10-07T04:44:42.691Z,97.30
2022-10-07T04:47:46.289Z,97.54
2022-10-07T04:50:51.763Z,96.69
2022-10-07T04:53:56.992Z,97.14
2022-10-07T04:57:05.261Z,96.96
2022-10-07T05:00:11.344Z,97.47
2022-10-07T05:03:15.425Z,97.34
2022-10-07T05:06:18.468Z,97.05
2022-10-07T05:09:21.271Z,96.87
2022-10-07T05:12:25.919Z,96.65
2022-10-07T05:15:28.723Z,96.35
2022-10-07T05:18:34.249Z,95.85
2022-10-07T05:21:38.673Z,95.15
2022-10-07T05:24:40.918Z,95.51
2022-10-07T05:27:43.771Z,95.64
2022-10-07T05:30:46.258Z,95.43
2022-10-07T05:33:49.782Z,94.71
2022-10-07T05:36:56.504Z,94.09
2022-10-07T05:39:58.955Z,94.43
2022-10-07T05:43:01.236Z,93.59
2022-10-07T05:46:09.562Z,93.23
2022-10-07T05:49:18.631Z,92.99
2022-10-07T05:52:23.818Z,93.69
2022-10-07T05:55:26.716Z,93.26
2022-10-07T05:58:29.998Z,92.35
2022-10-07T06:01:33.278Z,91.97
2022-10-07T06:04:44.934Z,92.09
2022-10-07T06:07:53.225Z,92.06
2022-10-07T06:11:19.996Z,91.99
2022-10-07T06:14:23.403Z,91.87
2022-10-07T06:17:25.741Z,92.55
2022-10-07T06:20:32.519Z,91.91
2022-10-07T06:23:36.247Z,91.20
2022-10-07T06:26:39.694Z,90.87
2022-10-07T06:29:44.159Z,89.65
2022-10-07T06:32:52.040Z,88.85
2022-10-07T06:36:04.473Z,87.68
2022-10-07T06:39:10.515Z,85.68
2022-10-07T06:42:23.128Z,84.95
2022-10-07T06:45:50.198Z,83.04
2022-10-07T06:48:58.364Z,82.08
2022-10-07T06:52:01.361Z,80.69
2022-10-07T06:55:10.114Z,77.14
2022-10-07T06:58:16.223Z,74.84
2022-10-07T07:01:20.452Z,72.42
2022-10-07T07:04:24.916Z,70.31
2022-10-07T07:07:27.722Z,67.61
2022-10-07T07:10:31.710Z,66.36
2022-10-07T07:13:36.254Z,63.85
2022-10-07T07:16:45.594Z,62.82
2022-10-07T07:19:50.408Z,63.79
2022-10-07T07:22:53.965Z,64.76
2022-10-07T07:25:56.414Z,66.13
2022-10-07T07:29:02.488Z,67.60
2022-10-07T07:32:10.694Z,69.07
2022-10-07T07:35:16.799Z,70.28
2022-10-07T07:38:24.862Z,70.25
2022-10-07T07:41:32.745Z,70.72
2022-10-07T07:44:40.599Z,70.43
2022-10-07T07:47:49.913Z,71.29
2022-10-07T07:50:56.429Z,72.17
2022-10-07T07:53:59.958Z,72.47
2022-10-07T07:57:06.892Z,72.81
2022-10-07T08:00:11.706Z,73.53
2022-10-07T08:03:22.852Z,73.85
2022-10-07T08:06:28.087Z,73.91
2022-10-07T08:09:32.020Z,74.15
2022-10-07T08:12:34.602Z,73.70
2022-10-07T08:15:39.378Z,73.95
2022-10-07T08:18:44.531Z,73.08
2022-10-07T08:21:50.650Z,72.48
2022-10-07T08:25:02.669Z,74.56
2022-10-07T08:28:05.984Z,71.33
2022-10-07T08:31:14.566Z,71.51
2022-10-07T08:34:17.104Z,70.94
2022-10-07T08:37:22.401Z,67.14
2022-10-07T08:40:24.836Z,66.29
2022-10-07T08:43:27.120Z,66.59
2022-10-07T08:46:32.662Z,67.48
2022-10-07T08:50:04.306Z,62.55
2022-10-07T08:53:17.540Z,61.26
2022-10-07T08:56:25.120Z,61.78
2022-10-07T08:59:27.348Z,62.51
2022-10-07T09:02:52.547Z,63.78
2022-10-07T09:05:56.393Z,64.75
2022-10-07T09:09:04.665Z,64.51
2022-10-07T09:12:15.814Z,64.37
2022-10-07T09:15:39.521Z,63.38
2022-10-07T09:19:03.935Z,64.47
2022-10-07T09:22:21.518Z,63.99
2022-10-07T09:25:28.833Z,64.68
2022-10-07T09:28:34.194Z,64.37
2022-10-07T09:31:36.681Z,66.26
2022-10-07T09:34:38.982Z,66.20
2022-10-07T09:38:03.893Z,65.60
2022-10-07T09:41:17.912Z,66.45
2022-10-07T09:44:27.316Z,66.40
2022-10-07T09:47:37.906Z,66.43
2022-10-07T09:50:42.737Z,65.17
2022-10-07T09:54:19.601Z,66.50
2022-10-07T09:57:24.671Z,63.37
2022-10-07T10:00:29.513Z,62.17
2022-10-07T10:03:38.905Z,59.99
2022-10-07T10:06:52.074Z,61.19
2022-10-07T10:10:03.543Z,60.08
2022-10-07T10:13:26.110Z,59.27
2022-10-07T10:16:34.413Z,57.75
2022-10-07T10:19:37.502Z,59.25
2022-10-07T10:22:48.210Z,55.86
2022-10-07T10:26:18.483Z,52.34
2022-10-07T10:29:25.369Z,50.50
2022-10-07T10:32:54.820Z,50.85
2022-10-07T10:36:18.277Z,47.82
2022-10-07T10:39:50.557Z,48.22
2022-10-07T10:43:22.986Z,46.82
2022-10-07T10:46:31.597Z,46.26
2022-10-07T10:49:33.866Z,45.16
2022-10-07T10:52:52.259Z,42.38
2022-10-07T10:56:10.208Z,40.99
2022-10-07T10:59:28.777Z,39.84
2022-10-07T11:02:44.466Z,39.78
2022-10-07T11:05:50.496Z,39.29
2022-10-07T11:08:57.469Z,41.42
2022-10-07T11:12:04.796Z,41.66
2022-10-07T11:15:18.836Z,41.69
2022-10-07T11:18:45.790Z,40.34
2022-10-07T11:21:56.903Z,41.07
2022-10-07T11:25:26.017Z,41.25
2022-10-07T11:28:30.555Z,42.09
2022-10-07T11:31:43.965Z,41.41
2022-10-07T11:34:54.680Z,41.82
2022-10-07T11:38:06.178Z,41.83
2022-10-07T11:41:20.636Z,42.32
2022-10-07T11:44:29.087Z,43.41
2022-10-07T11:47:40.248Z,43.62
2022-10-07T11:50:52.505Z,43.22
2022-10-07T11:54:02.937Z,41.75
2022-10-07T11:57:05.307Z,41.39
2022-10-07T12:00:23.302Z,41.97
2022-10-07T12:03:25.672Z,42.64
2022-10-07T12:06:28.576Z,40.43
2022-10-07T12:10:09.523Z,35.69
2022-10-07T12:13:15.214Z,34.97
2022-10-07T12:16:24.414Z,34.82
2022-10-07T12:19:26.691Z,34.39
2022-10-07T12:22:35.831Z,35.47
2022-10-07T12:25:44.871Z,35.61
2022-10-07T12:28:48.692Z,36.16
2022-10-07T12:31:51.209Z,35.46
2022-10-07T12:34:53.473Z,36.33
2022-10-07T12:38:13.755Z,35.16
2022-10-07T12:41:32.895Z,37.40
2022-10-07T12:44:43.785Z,38.60
2022-10-07T12:47:47.912Z,37.92
2022-10-07T12:50:53.554Z,37.31
2022-10-07T12:53:59.142Z,35.86
2022-10-07T12:57:02.465Z,34.38
2022-10-07T13:00:20.515Z,35.19
2022-10-07T13:03:51.623Z,34.65
2022-10-07T13:06:59.696Z,34.97
2022-10-07T13:10:23.489Z,35.41
2022-10-07T13:13:34.720Z,34.81
2022-10-07T13:17:14.115Z,34.56
2022-10-07T13:20:32.760Z,33.85
2022-10-07T13:23:35.127Z,33.34
2022-10-07T13:26:37.371Z,33.65
2022-10-07T13:29:39.752Z,34.22
2022-10-07T13:32:41.933Z,33.52
2022-10-07T13:35:44.244Z,33.95
2022-10-07T13:38:48.699Z,34.22
2022-10-07T13:41:56.802Z,34.51
2022-10-07T13:45:03.064Z,33.84
2022-10-07T13:48:05.509Z,36.59
2022-10-07T13:51:12.272Z,36.78
2022-10-07T13:54:24.216Z,37.45
2022-10-07T13:57:29.641Z,40.58
2022-10-07T14:00:33.521Z,41.88
2022-10-07T14:03:55.632Z,42.46
2022-10-07T14:07:21.548Z,42.20
2022-10-07T14:10:29.707Z,41.62
2022-10-07T14:13:34.047Z,42.99
2022-10-07T14:16:36.591Z,44.39
2022-10-07T14:19:39.473Z,44.58
2022-10-07T14:22:43.230Z,47.53
2022-10-07T14:25:51.316Z,47.98
2022-10-07T14:28:53.601Z,50.30
2022-10-07T14:32:59.484Z,53.52
2022-10-07T14:36:18.388Z,54.88
2022-10-07T14:39:23.449Z,55.74
2022-10-07T14:42:36.173Z,53.61
2022-10-07T14:45:38.484Z,51.13
2022-10-07T14:48:40.696Z,50.20
2022-10-07T14:51:44.666Z,52.35
2022-10-07T14:54:51.756Z,51.81
2022-10-07T14:57:54.068Z,53.80
2022-10-07T15:00:56.569Z,57.24
2022-10-07T15:03:59.050Z,57.17
2022-10-07T15:07:01.337Z,57.78
2022-10-07T15:10:03.766Z,55.99
2022-10-07T15:13:11.055Z,57.08
2022-10-07T15:16:24.802Z,60.55
2022-10-07T15:19:27.718Z,61.83
2022-10-07T15:22:30.456Z,62.93
2022-10-07T15:25:33.034Z,63.05
2022-10-07T15:28:35.352Z,64.28
2022-10-07T15:31:38.028Z,65.09
2022-10-07T15:34:40.279Z,67.69
2022-10-07T15:37:45.827Z,68.99
2022-10-07T15:40:54.350Z,69.54
2022-10-07T15:43:58.502Z,70.51
2022-10-07T15:47:02.763Z,71.67
2022-10-07T15:50:06.742Z,72.94
2022-10-07T15:53:09.757Z,74.37
2022-10-07T15:56:11.924Z,75.03
2022-10-07T15:59:14.984Z,75.88
2022-10-07T16:02:21.256Z,77.87
2022-10-07T16:05:24.316Z,81.21
2022-10-07T16:08:26.925Z,81.90
2022-10-07T16:11:30.295Z,81.65
2022-10-07T16:14:32.916Z,82.99
2022-10-07T16:17:35.639Z,81.71
2022-10-07T16:20:39.733Z,81.33
2022-10-07T16:23:46.980Z,81.78
2022-10-07T16:26:53.181Z,82.01
2022-10-07T16:30:13.569Z,81.95
2022-10-07T16:33:15.728Z,81.53
2022-10-07T16:36:18.526Z,80.60
2022-10-07T16:39:28.022Z,80.72
2022-10-07T16:42:30.296Z,81.13
2022-10-07T16:45:39.642Z,81.34
2022-10-07T16:48:43.374Z,80.50
2022-10-07T16:51:52.836Z,80.60
2022-10-07T16:54:55.007Z,80.66
2022-10-07T16:57:57.179Z,80.34
2022-10-07T17:01:07.256Z,81.05
2022-10-07T17:04:09.509Z,81.69
2022-10-07T17:07:11.829Z,81.53
2022-10-07T17:10:14.007Z,81.50
2022-10-07T17:13:19.060Z,82.93
2022-10-07T17:16:21.552Z,82.89
2022-10-07T17:19:26.661Z,82.79
2022-10-07T17:22:28.853Z,83.53
2022-10-07T17:25:31.032Z,83.68
2022-10-07T17:28:37.171Z,84.12
2022-10-07T17:31:42.418Z,84.85
2022-10-07T17:34:45.544Z,84.74
2022-10-07T17:37:49.320Z,85.00
2022-10-07T17:40:51.488Z,85.45
2022-10-07T17:43:58.271Z,85.15
2022-10-07T17:47:03.717Z,85.82
2022-10-07T17:50:06.996Z,86.22
2022-10-07T17:53:19.388Z,85.91
2022-10-07T17:56:22.365Z,86.15
2022-10-07T17:59:25.430Z,86.71
2022-10-07T18:02:28.643Z,87.31
2022-10-07T18:05:30.836Z,87.53
2022-10-07T18:08:36.774Z,88.08
2022-10-07T18:11:57.463Z,88.66
2022-10-07T18:15:18.084Z,88.46
2022-10-07T18:18:20.333Z,88.81
2022-10-07T18:21:24.075Z,89.38
2022-10-07T18:24:28.831Z,89.77
2022-10-07T18:27:31.389Z,89.58
2022-10-07T18:30:33.655Z,89.87
2022-10-07T18:33:38.002Z,89.34
2022-10-07T18:36:40.205Z,89.61
2022-10-07T18:39:42.341Z,89.60
2022-10-07T18:42:44.598Z,89.44
2022-10-07T18:45:46.808Z,89.50
2022-10-07T18:48:49.143Z,90.06
2022-10-07T18:51:51.577Z,89.84
2022-10-07T18:54:53.770Z,89.77
2022-10-07T18:57:55.908Z,90.03
2022-10-07T19:00:58.178Z,90.14
2022-10-07T19:04:02.347Z,90.28
2022-10-07T19:07:04.552Z,90.15
2022-10-07T19:10:07.298Z,90.18
2022-10-07T19:13:32.482Z,90.61
2022-10-07T19:16:40.829Z,90.54
2022-10-07T19:19:43.514Z,90.42
2022-10-07T19:22:45.660Z,90.10
2022-10-07T19:25:47.914Z,90.07
2022-10-07T19:28:52.072Z,90.00
2022-10-07T19:31:54.354Z,90.38
2022-10-07T19:34:56.533Z,90.49
2022-10-07T19:38:00.040Z,90.33
2022-10-07T19:41:02.205Z,90.44
2022-10-07T19:44:05.636Z,90.71
2022-10-07T19:47:07.824Z,91.74
2022-10-07T19:50:10.173Z,91.61
2022-10-07T19:53:12.330Z,91.46
2022-10-07T19:56:20.654Z,91.42
2022-10-07T19:59:23.911Z,91.42
2022-10-07T20:02:26.181Z,91.48
2022-10-07T20:05:29.882Z,91.77
2022-10-07T20:08:34.191Z,91.45
2022-10-07T20:11:36.619Z,91.14
2022-10-07T20:14:38.812Z,90.87
2022-10-07T20:17:41.774Z,90.42
2022-10-07T20:20:44.229Z,90.39
2022-10-07T20:23:48.478Z,89.88
2022-10-07T20:26:50.695Z,90.15
2022-10-07T20:29:58.832Z,90.19
2022-10-07T20:33:01.041Z,90.59
2022-10-07T20:36:03.976Z,90.96
2022-10-07T20:39:38.850Z,90.78
2022-10-07T20:42:45.984Z,90.87
2022-10-07T20:45:59.346Z,91.09
2022-10-07T20:49:01.854Z,91.21
2022-10-07T20:52:11.565Z,91.57
2022-10-07T20:55:14.314Z,91.69
2022-10-07T20:58:16.587Z,92.15
2022-10-07T21:01:18.936Z,91.96
2022-10-07T21:04:21.912Z,91.29
2022-10-07T21:07:24.060Z,92.30
2022-10-07T21:10:26.360Z,91.53
2022-10-07T21:13:30.557Z,91.50
2022-10-07T21:16:35.157Z,91.14
2022-10-07T21:19:37.453Z,90.60
2022-10-07T21:22:39.640Z,90.74
2022-10-07T21:25:41.936Z,91.13
2022-10-07T21:28:44.647Z,91.36
2022-10-07T21:31:46.821Z,91.27
2022-10-07T21:34:49.012Z,91.06
2022-10-07T21:37:51.150Z,91.60
2022-10-07T21:40:54.115Z,91.48
2022-10-07T21:43:56.834Z,91.52
2022-10-07T21:47:00.034Z,91.57
2022-10-07T21:50:02.328Z,92.86
2022-10-07T21:53:04.590Z,92.08
2022-10-07T21:56:10.095Z,93.22
2022-10-07T21:59:12.991Z,92.65
2022-10-07T22:02:15.224Z,92.89
2022-10-07T22:05:17.494Z,93.09
2022-10-07T22:08:35.049Z,92.74
2022-10-07T22:11:37.984Z,92.93
2022-10-07T22:14:40.161Z,92.12
2022-10-07T22:17:42.363Z,92.32
2022-10-07T22:20:44.664Z,92.54
2022-10-07T22:23:51.311Z,92.79
2022-10-07T22:26:53.478Z,92.39
2022-10-07T22:29:55.726Z,92.61
2022-10-07T22:32:57.876Z,92.50
2022-10-07T22:36:03.156Z,92.69
2022-10-07T22:39:05.369Z,92.89
2022-10-07T22:42:07.737Z,94.09
2022-10-07T22:45:10.497Z,93.80
2022-10-07T22:48:12.892Z,93.22
2022-10-07T22:51:16.322Z,94.44
2022-10-07T22:54:18.569Z,94.25
2022-10-07T22:57:23.519Z,94.33
2022-10-07T23:00:25.736Z,94.12
2022-10-07T23:03:38.351Z,94.18
2022-10-07T23:06:40.812Z,93.95
2022-10-07T23:09:42.948Z,93.80
2022-10-07T23:12:45.343Z,94.29
2022-10-07T23:16:11.319Z,94.43
2022-10-07T23:19:13.545Z,94.13
2022-10-07T23:22:15.680Z,95.46
2022-10-07T23:25:17.879Z,95.01
2022-10-07T23:28:21.621Z,94.53
2022-10-07T23:31:27.294Z,94.12
2022-10-07T23:34:29.539Z,93.67
2022-10-07T23:37:31.744Z,94.20
2022-10-07T23:40:34.382Z,94.23
2022-10-07T23:43:36.891Z,94.49
2022-10-07T23:46:39.612Z,94.29
2022-10-07T23:49:41.899Z,93.99
2022-10-07T23:52:44.291Z,93.63
2022-10-07T23:55:51.553Z,93.00
2022-10-07T23:58:53.691Z,92.57
